sensor_id;sensor_type;location;lat;lon;timestamp;temperature;humidity
44047;DHT22;29713;-33.888;151.150;2023-02-23T00:01:23;20.90;99.90
44047;DHT22;29713;-33.888;151.150;2023-02-23T00:03:54;20.90;99.90
44047;DHT22;29713;-33.888;151.150;2023-02-23T00:06:22;20.90;99.90
44047;DHT22;29713;-33.888;151.150;2023-02-23T00:08:50;20.90;99.90
44047;DHT22;29713;-33.888;151.150;2023-02-23T00:11:18;20.90;99.90
44047;DHT22;29713;-33.888;151.150;2023-02-23T00:13:47;20.90;99.90
44047;DHT22;29713;-33.888;151.150;2023-02-23T00:16:20;21.00;99.90
44047;DHT22;29713;-33.888;151.150;2023-02-23T00:18:49;21.10;99.90
44047;DHT22;29713;-33.888;151.150;2023-02-23T00:21:22;21.20;99.90
44047;DHT22;29713;-33.888;151.150;2023-02-23T00:23:52;21.30;99.90
44047;DHT22;29713;-33.888;151.150;2023-02-23T00:26:21;21.40;99.90
44047;DHT22;29713;-33.888;151.150;2023-02-23T00:28:54;21.60;99.90
44047;DHT22;29713;-33.888;151.150;2023-02-23T00:31:23;21.60;99.90
44047;DHT22;29713;-33.888;151.150;2023-02-23T00:33:57;21.70;99.90
44047;DHT22;29713;-33.888;151.150;2023-02-23T00:36:27;21.70;99.90
44047;DHT22;29713;-33.888;151.150;2023-02-23T00:38:57;21.60;99.90
44047;DHT22;29713;-33.888;151.150;2023-02-23T00:41:26;21.60;99.90
44047;DHT22;29713;-33.888;151.150;2023-02-23T00:43:58;21.50;99.90
44047;DHT22;29713;-33.888;151.150;2023-02-23T00:46:28;21.40;99.90
44047;DHT22;29713;-33.888;151.150;2023-02-23T00:48:57;21.30;99.90
44047;DHT22;29713;-33.888;151.150;2023-02-23T00:51:26;21.20;99.90
44047;DHT22;29713;-33.888;151.150;2023-02-23T00:53:58;21.30;99.90
44047;DHT22;29713;-33.888;151.150;2023-02-23T00:56:27;21.30;99.90
44047;DHT22;29713;-33.888;151.150;2023-02-23T00:58:54;21.60;99.90
44047;DHT22;29713;-33.888;151.150;2023-02-23T01:01:22;21.80;99.90
44047;DHT22;29713;-33.888;151.150;2023-02-23T01:03:50;22.00;99.90
44047;DHT22;29713;-33.888;151.150;2023-02-23T01:06:21;22.10;99.90
44047;DHT22;29713;-33.888;151.150;2023-02-23T01:08:50;22.20;99.90
44047;DHT22;29713;-33.888;151.150;2023-02-23T01:11:24;22.40;99.90
44047;DHT22;29713;-33.888;151.150;2023-02-23T01:13:58;22.60;99.90
44047;DHT22;29713;-33.888;151.150;2023-02-23T01:16:28;22.90;99.90
44047;DHT22;29713;-33.888;151.150;2023-02-23T01:18:58;23.10;99.90
44047;DHT22;29713;-33.888;151.150;2023-02-23T01:21:28;23.30;99.90
44047;DHT22;29713;-33.888;151.150;2023-02-23T01:23:56;23.40;99.90
44047;DHT22;29713;-33.888;151.150;2023-02-23T01:26:29;23.50;99.90
44047;DHT22;29713;-33.888;151.150;2023-02-23T01:29:02;23.40;99.90
44047;DHT22;29713;-33.888;151.150;2023-02-23T01:31:30;23.30;99.90
44047;DHT22;29713;-33.888;151.150;2023-02-23T01:34:00;23.20;99.90
44047;DHT22;29713;-33.888;151.150;2023-02-23T01:36:28;22.90;99.90
44047;DHT22;29713;-33.888;151.150;2023-02-23T01:38:56;22.70;99.90
44047;DHT22;29713;-33.888;151.150;2023-02-23T01:41:27;22.50;99.90
44047;DHT22;29713;-33.888;151.150;2023-02-23T01:46:44;22.00;99.90
44047;DHT22;29713;-33.888;151.150;2023-02-23T01:49:21;21.80;99.90
44047;DHT22;29713;-33.888;151.150;2023-02-23T01:52:08;21.70;99.90
44047;DHT22;29713;-33.888;151.150;2023-02-23T01:54:39;21.60;99.90
44047;DHT22;29713;-33.888;151.150;2023-02-23T01:57:11;21.50;99.90
44047;DHT22;29713;-33.888;151.150;2023-02-23T01:59:43;21.30;99.90
44047;DHT22;29713;-33.888;151.150;2023-02-23T02:02:11;21.30;99.90
44047;DHT22;29713;-33.888;151.150;2023-02-23T02:04:41;21.30;99.90
44047;DHT22;29713;-33.888;151.150;2023-02-23T02:07:16;21.30;99.90
44047;DHT22;29713;-33.888;151.150;2023-02-23T02:09:44;21.30;99.90
44047;DHT22;29713;-33.888;151.150;2023-02-23T02:12:33;21.30;99.90
44047;DHT22;29713;-33.888;151.150;2023-02-23T02:15:02;21.40;99.90
44047;DHT22;29713;-33.888;151.150;2023-02-23T02:17:58;21.50;99.90
44047;DHT22;29713;-33.888;151.150;2023-02-23T02:29:04;21.50;99.90
44047;DHT22;29713;-33.888;151.150;2023-02-23T02:40:58;21.90;99.90
44047;DHT22;29713;-33.888;151.150;2023-02-23T02:43:09;22.20;99.90
44047;DHT22;29713;-33.888;151.150;2023-02-23T02:51:23;22.00;99.90
44047;DHT22;29713;-33.888;151.150;2023-02-23T02:54:12;21.70;99.90
44047;DHT22;29713;-33.888;151.150;2023-02-23T02:56:43;21.60;99.90
44047;DHT22;29713;-33.888;151.150;2023-02-23T02:59:16;21.40;99.90
44047;DHT22;29713;-33.888;151.150;2023-02-23T03:02:05;21.30;99.90
44047;DHT22;29713;-33.888;151.150;2023-02-23T03:04:51;21.20;99.90
44047;DHT22;29713;-33.888;151.150;2023-02-23T03:13:35;21.00;99.90
44047;DHT22;29713;-33.888;151.150;2023-02-23T03:16:39;21.00;99.90
44047;DHT22;29713;-33.888;151.150;2023-02-23T03:19:30;20.90;99.90
44047;DHT22;29713;-33.888;151.150;2023-02-23T03:22:23;21.00;99.90
44047;DHT22;29713;-33.888;151.150;2023-02-23T03:25:18;21.10;99.90
44047;DHT22;29713;-33.888;151.150;2023-02-23T03:28:19;21.10;99.90
44047;DHT22;29713;-33.888;151.150;2023-02-23T03:31:25;21.10;99.90
44047;DHT22;29713;-33.888;151.150;2023-02-23T03:34:16;21.30;99.90
44047;DHT22;29713;-33.888;151.150;2023-02-23T03:37:25;21.50;99.90
44047;DHT22;29713;-33.888;151.150;2023-02-23T03:40:22;21.50;99.90
44047;DHT22;29713;-33.888;151.150;2023-02-23T03:43:15;21.60;99.90
44047;DHT22;29713;-33.888;151.150;2023-02-23T03:46:04;21.60;99.90
44047;DHT22;29713;-33.888;151.150;2023-02-23T03:48:54;21.60;99.90
44047;DHT22;29713;-33.888;151.150;2023-02-23T03:51:44;21.60;99.90
44047;DHT22;29713;-33.888;151.150;2023-02-23T03:54:40;21.70;99.90
44047;DHT22;29713;-33.888;151.150;2023-02-23T03:57:27;21.70;99.90
44047;DHT22;29713;-33.888;151.150;2023-02-23T04:00:22;22.00;99.90
44047;DHT22;29713;-33.888;151.150;2023-02-23T04:03:11;22.30;99.90
44047;DHT22;29713;-33.888;151.150;2023-02-23T04:06:00;22.40;99.90
44047;DHT22;29713;-33.888;151.150;2023-02-23T04:08:47;22.30;99.90
44047;DHT22;29713;-33.888;151.150;2023-02-23T04:14:43;21.90;99.90
44047;DHT22;29713;-33.888;151.150;2023-02-23T04:17:14;21.70;99.90
44047;DHT22;29713;-33.888;151.150;2023-02-23T04:19:52;21.70;99.90
44047;DHT22;29713;-33.888;151.150;2023-02-23T04:22:20;21.70;99.90
44047;DHT22;29713;-33.888;151.150;2023-02-23T04:24:48;21.60;99.90
44047;DHT22;29713;-33.888;151.150;2023-02-23T04:27:16;21.60;99.90
44047;DHT22;29713;-33.888;151.150;2023-02-23T04:29:44;21.70;99.90
44047;DHT22;29713;-33.888;151.150;2023-02-23T04:32:17;21.70;99.90
44047;DHT22;29713;-33.888;151.150;2023-02-23T04:34:45;21.80;99.90
44047;DHT22;29713;-33.888;151.150;2023-02-23T04:37:13;21.80;99.90
44047;DHT22;29713;-33.888;151.150;2023-02-23T04:39:40;21.90;99.90
44047;DHT22;29713;-33.888;151.150;2023-02-23T04:42:17;22.10;99.90
44047;DHT22;29713;-33.888;151.150;2023-02-23T04:44:45;22.10;99.90
44047;DHT22;29713;-33.888;151.150;2023-02-23T04:47:14;22.10;99.90
44047;DHT22;29713;-33.888;151.150;2023-02-23T04:49:42;22.20;99.90
44047;DHT22;29713;-33.888;151.150;2023-02-23T04:52:10;22.10;99.90
44047;DHT22;29713;-33.888;151.150;2023-02-23T04:54:38;22.10;99.90
44047;DHT22;29713;-33.888;151.150;2023-02-23T04:57:06;22.20;99.90
44047;DHT22;29713;-33.888;151.150;2023-02-23T04:59:36;22.30;99.90
44047;DHT22;29713;-33.888;151.150;2023-02-23T05:02:04;22.40;99.90
44047;DHT22;29713;-33.888;151.150;2023-02-23T05:04:32;22.60;99.90
44047;DHT22;29713;-33.888;151.150;2023-02-23T05:07:05;22.80;99.90
44047;DHT22;29713;-33.888;151.150;2023-02-23T05:09:32;23.20;99.90
44047;DHT22;29713;-33.888;151.150;2023-02-23T05:12:00;23.70;99.90
44047;DHT22;29713;-33.888;151.150;2023-02-23T05:14:27;24.00;99.90
44047;DHT22;29713;-33.888;151.150;2023-02-23T05:16:55;23.90;99.90
44047;DHT22;29713;-33.888;151.150;2023-02-23T05:19:22;24.00;99.90
44047;DHT22;29713;-33.888;151.150;2023-02-23T05:21:50;24.00;99.90
44047;DHT22;29713;-33.888;151.150;2023-02-23T05:24:18;24.10;99.90
44047;DHT22;29713;-33.888;151.150;2023-02-23T05:26:45;23.90;99.90
44047;DHT22;29713;-33.888;151.150;2023-02-23T05:29:14;23.70;99.90
44047;DHT22;29713;-33.888;151.150;2023-02-23T05:31:42;23.60;99.90
44047;DHT22;29713;-33.888;151.150;2023-02-23T05:34:09;23.50;99.90
44047;DHT22;29713;-33.888;151.150;2023-02-23T05:36:37;23.40;99.90
44047;DHT22;29713;-33.888;151.150;2023-02-23T05:39:05;23.40;99.90
44047;DHT22;29713;-33.888;151.150;2023-02-23T05:41:33;23.30;99.90
44047;DHT22;29713;-33.888;151.150;2023-02-23T05:44:00;23.20;99.90
44047;DHT22;29713;-33.888;151.150;2023-02-23T05:46:28;23.30;99.90
44047;DHT22;29713;-33.888;151.150;2023-02-23T05:48:57;23.40;99.90
44047;DHT22;29713;-33.888;151.150;2023-02-23T05:51:25;23.60;99.90
44047;DHT22;29713;-33.888;151.150;2023-02-23T05:53:53;23.60;99.90
44047;DHT22;29713;-33.888;151.150;2023-02-23T05:56:20;23.60;99.90
44047;DHT22;29713;-33.888;151.150;2023-02-23T05:58:49;23.60;99.90
44047;DHT22;29713;-33.888;151.150;2023-02-23T06:01:17;23.60;99.90
44047;DHT22;29713;-33.888;151.150;2023-02-23T06:03:45;23.70;99.90
44047;DHT22;29713;-33.888;151.150;2023-02-23T06:06:13;23.70;99.90
44047;DHT22;29713;-33.888;151.150;2023-02-23T06:08:40;23.70;99.90
44047;DHT22;29713;-33.888;151.150;2023-02-23T06:11:09;23.60;99.90
44047;DHT22;29713;-33.888;151.150;2023-02-23T06:13:36;23.50;99.90
44047;DHT22;29713;-33.888;151.150;2023-02-23T06:16:04;23.50;99.90
44047;DHT22;29713;-33.888;151.150;2023-02-23T06:18:31;23.40;99.90
44047;DHT22;29713;-33.888;151.150;2023-02-23T06:21:00;23.50;99.90
44047;DHT22;29713;-33.888;151.150;2023-02-23T06:23:30;23.40;99.90
44047;DHT22;29713;-33.888;151.150;2023-02-23T06:25:58;23.50;99.90
44047;DHT22;29713;-33.888;151.150;2023-02-23T06:28:26;23.40;99.90
44047;DHT22;29713;-33.888;151.150;2023-02-23T06:30:55;23.30;99.90
44047;DHT22;29713;-33.888;151.150;2023-02-23T06:33:23;23.20;99.90
44047;DHT22;29713;-33.888;151.150;2023-02-23T06:35:51;23.30;99.90
44047;DHT22;29713;-33.888;151.150;2023-02-23T06:38:20;23.10;99.90
44047;DHT22;29713;-33.888;151.150;2023-02-23T06:40:50;23.10;99.90
44047;DHT22;29713;-33.888;151.150;2023-02-23T06:43:18;22.90;99.90
44047;DHT22;29713;-33.888;151.150;2023-02-23T06:45:46;22.70;99.90
44047;DHT22;29713;-33.888;151.150;2023-02-23T06:48:13;22.70;99.90
44047;DHT22;29713;-33.888;151.150;2023-02-23T06:50:40;22.60;99.90
44047;DHT22;29713;-33.888;151.150;2023-02-23T06:53:09;22.50;99.90
44047;DHT22;29713;-33.888;151.150;2023-02-23T06:55:36;22.50;99.90
44047;DHT22;29713;-33.888;151.150;2023-02-23T06:58:03;22.50;99.90
44047;DHT22;29713;-33.888;151.150;2023-02-23T07:00:32;22.60;99.90
44047;DHT22;29713;-33.888;151.150;2023-02-23T07:02:59;22.60;99.90
44047;DHT22;29713;-33.888;151.150;2023-02-23T07:05:27;22.60;99.90
44047;DHT22;29713;-33.888;151.150;2023-02-23T07:07:55;22.60;99.90
44047;DHT22;29713;-33.888;151.150;2023-02-23T07:10:22;22.70;99.90
44047;DHT22;29713;-33.888;151.150;2023-02-23T07:12:49;22.70;99.90
44047;DHT22;29713;-33.888;151.150;2023-02-23T07:15:17;22.70;99.90
44047;DHT22;29713;-33.888;151.150;2023-02-23T07:17:45;22.70;99.90
44047;DHT22;29713;-33.888;151.150;2023-02-23T07:20:15;22.80;99.90
44047;DHT22;29713;-33.888;151.150;2023-02-23T07:22:42;22.80;99.90
44047;DHT22;29713;-33.888;151.150;2023-02-23T07:25:10;22.70;99.90
44047;DHT22;29713;-33.888;151.150;2023-02-23T07:27:37;22.70;99.90
44047;DHT22;29713;-33.888;151.150;2023-02-23T07:30:05;22.70;99.90
44047;DHT22;29713;-33.888;151.150;2023-02-23T07:32:33;22.70;99.90
44047;DHT22;29713;-33.888;151.150;2023-02-23T07:35:00;22.70;99.90
44047;DHT22;29713;-33.888;151.150;2023-02-23T07:37:27;22.60;99.90
44047;DHT22;29713;-33.888;151.150;2023-02-23T07:39:56;22.50;99.90
44047;DHT22;29713;-33.888;151.150;2023-02-23T07:42:23;22.40;99.90
44047;DHT22;29713;-33.888;151.150;2023-02-23T07:44:52;22.40;99.90
44047;DHT22;29713;-33.888;151.150;2023-02-23T07:47:19;22.30;99.90
44047;DHT22;29713;-33.888;151.150;2023-02-23T07:49:48;22.30;99.90
44047;DHT22;29713;-33.888;151.150;2023-02-23T07:52:17;22.30;99.90
44047;DHT22;29713;-33.888;151.150;2023-02-23T07:54:44;22.20;99.90
44047;DHT22;29713;-33.888;151.150;2023-02-23T07:57:12;22.30;99.90
44047;DHT22;29713;-33.888;151.150;2023-02-23T07:59:39;22.20;99.90
44047;DHT22;29713;-33.888;151.150;2023-02-23T08:02:08;22.20;99.90
44047;DHT22;29713;-33.888;151.150;2023-02-23T08:04:36;22.20;99.90
44047;DHT22;29713;-33.888;151.150;2023-02-23T08:07:06;22.20;99.90
44047;DHT22;29713;-33.888;151.150;2023-02-23T08:09:34;22.20;99.90
44047;DHT22;29713;-33.888;151.150;2023-02-23T08:12:02;22.20;99.90
44047;DHT22;29713;-33.888;151.150;2023-02-23T08:14:29;22.20;99.90
44047;DHT22;29713;-33.888;151.150;2023-02-23T08:16:56;22.10;99.90
44047;DHT22;29713;-33.888;151.150;2023-02-23T08:19:24;22.10;99.90
44047;DHT22;29713;-33.888;151.150;2023-02-23T08:21:51;22.10;99.90
44047;DHT22;29713;-33.888;151.150;2023-02-23T08:24:19;22.10;99.90
44047;DHT22;29713;-33.888;151.150;2023-02-23T08:26:46;22.10;99.90
44047;DHT22;29713;-33.888;151.150;2023-02-23T08:29:15;22.00;99.90
44047;DHT22;29713;-33.888;151.150;2023-02-23T08:31:43;22.00;99.90
44047;DHT22;29713;-33.888;151.150;2023-02-23T08:34:10;21.90;99.90
44047;DHT22;29713;-33.888;151.150;2023-02-23T08:36:38;22.00;99.90
44047;DHT22;29713;-33.888;151.150;2023-02-23T08:39:06;22.00;99.90
44047;DHT22;29713;-33.888;151.150;2023-02-23T08:41:35;22.00;99.90
44047;DHT22;29713;-33.888;151.150;2023-02-23T08:44:02;21.90;99.90
44047;DHT22;29713;-33.888;151.150;2023-02-23T08:46:33;21.90;99.90
44047;DHT22;29713;-33.888;151.150;2023-02-23T08:49:00;21.90;99.90
44047;DHT22;29713;-33.888;151.150;2023-02-23T08:51:28;21.90;99.90
44047;DHT22;29713;-33.888;151.150;2023-02-23T08:53:55;21.90;99.90
44047;DHT22;29713;-33.888;151.150;2023-02-23T08:56:23;21.90;99.90
44047;DHT22;29713;-33.888;151.150;2023-02-23T08:58:50;21.80;99.90
44047;DHT22;29713;-33.888;151.150;2023-02-23T09:01:19;21.80;99.90
44047;DHT22;29713;-33.888;151.150;2023-02-23T09:03:49;21.80;99.90
44047;DHT22;29713;-33.888;151.150;2023-02-23T09:06:19;21.70;99.90
44047;DHT22;29713;-33.888;151.150;2023-02-23T09:08:48;21.70;99.90
44047;DHT22;29713;-33.888;151.150;2023-02-23T09:11:15;21.70;99.90
44047;DHT22;29713;-33.888;151.150;2023-02-23T09:13:43;21.70;99.90
44047;DHT22;29713;-33.888;151.150;2023-02-23T09:16:12;21.60;99.90
44047;DHT22;29713;-33.888;151.150;2023-02-23T09:18:39;21.50;99.90
44047;DHT22;29713;-33.888;151.150;2023-02-23T09:21:12;21.50;99.90
44047;DHT22;29713;-33.888;151.150;2023-02-23T09:23:47;21.40;99.90
44047;DHT22;29713;-33.888;151.150;2023-02-23T09:26:17;21.40;99.90
44047;DHT22;29713;-33.888;151.150;2023-02-23T09:28:47;21.40;99.90
44047;DHT22;29713;-33.888;151.150;2023-02-23T09:31:18;21.40;99.90
44047;DHT22;29713;-33.888;151.150;2023-02-23T09:33:46;21.40;99.90
44047;DHT22;29713;-33.888;151.150;2023-02-23T09:36:16;21.30;99.90
44047;DHT22;29713;-33.888;151.150;2023-02-23T09:38:49;21.30;99.90
44047;DHT22;29713;-33.888;151.150;2023-02-23T09:49:27;21.30;99.90
44047;DHT22;29713;-33.888;151.150;2023-02-23T09:51:58;21.30;99.90
44047;DHT22;29713;-33.888;151.150;2023-02-23T09:54:32;21.30;99.90
44047;DHT22;29713;-33.888;151.150;2023-02-23T09:57:05;21.20;99.90
44047;DHT22;29713;-33.888;151.150;2023-02-23T09:59:36;21.20;99.90
44047;DHT22;29713;-33.888;151.150;2023-02-23T10:02:36;21.20;99.90
44047;DHT22;29713;-33.888;151.150;2023-02-23T10:05:07;21.20;99.90
44047;DHT22;29713;-33.888;151.150;2023-02-23T10:13:03;21.20;99.90
44047;DHT22;29713;-33.888;151.150;2023-02-23T10:15:46;21.10;99.90
44047;DHT22;29713;-33.888;151.150;2023-02-23T10:21:32;21.10;99.90
44047;DHT22;29713;-33.888;151.150;2023-02-23T10:24:24;21.10;99.90
44047;DHT22;29713;-33.888;151.150;2023-02-23T10:26:57;21.00;99.90
44047;DHT22;29713;-33.888;151.150;2023-02-23T10:29:36;21.00;99.90
44047;DHT22;29713;-33.888;151.150;2023-02-23T10:32:31;21.00;99.90
44047;DHT22;29713;-33.888;151.150;2023-02-23T10:34:55;21.00;99.90
44047;DHT22;29713;-33.888;151.150;2023-02-23T10:37:24;21.00;99.90
44047;DHT22;29713;-33.888;151.150;2023-02-23T10:39:52;20.90;99.90
44047;DHT22;29713;-33.888;151.150;2023-02-23T10:42:26;21.00;99.90
44047;DHT22;29713;-33.888;151.150;2023-02-23T10:44:55;20.90;99.90
44047;DHT22;29713;-33.888;151.150;2023-02-23T10:47:31;20.90;99.90
44047;DHT22;29713;-33.888;151.150;2023-02-23T10:50:00;20.90;99.90
44047;DHT22;29713;-33.888;151.150;2023-02-23T10:52:32;20.90;99.90
44047;DHT22;29713;-33.888;151.150;2023-02-23T10:55:04;20.90;99.90
44047;DHT22;29713;-33.888;151.150;2023-02-23T10:57:34;20.90;99.90
44047;DHT22;29713;-33.888;151.150;2023-02-23T11:00:21;20.80;99.90
44047;DHT22;29713;-33.888;151.150;2023-02-23T11:02:53;20.80;99.90
44047;DHT22;29713;-33.888;151.150;2023-02-23T11:05:45;20.80;99.90
44047;DHT22;29713;-33.888;151.150;2023-02-23T11:08:35;20.80;99.90
44047;DHT22;29713;-33.888;151.150;2023-02-23T11:13:47;20.80;99.90
44047;DHT22;29713;-33.888;151.150;2023-02-23T11:16:27;20.70;99.90
44047;DHT22;29713;-33.888;151.150;2023-02-23T11:19:03;20.70;99.90
44047;DHT22;29713;-33.888;151.150;2023-02-23T11:21:33;20.70;99.90
44047;DHT22;29713;-33.888;151.150;2023-02-23T11:24:25;20.70;99.90
44047;DHT22;29713;-33.888;151.150;2023-02-23T11:26:56;20.60;99.90
44047;DHT22;29713;-33.888;151.150;2023-02-23T11:32:02;20.60;99.90
44047;DHT22;29713;-33.888;151.150;2023-02-23T11:34:36;20.60;99.90
44047;DHT22;29713;-33.888;151.150;2023-02-23T11:37:19;20.60;99.90
44047;DHT22;29713;-33.888;151.150;2023-02-23T11:39:56;20.60;99.90
44047;DHT22;29713;-33.888;151.150;2023-02-23T11:42:31;20.60;99.90
44047;DHT22;29713;-33.888;151.150;2023-02-23T11:45:15;20.70;99.90
44047;DHT22;29713;-33.888;151.150;2023-02-23T11:47:54;20.70;99.90
44047;DHT22;29713;-33.888;151.150;2023-02-23T11:50:30;20.70;99.90
44047;DHT22;29713;-33.888;151.150;2023-02-23T11:53:16;20.70;99.90
44047;DHT22;29713;-33.888;151.150;2023-02-23T11:55:52;20.80;99.90
44047;DHT22;29713;-33.888;151.150;2023-02-23T12:01:06;20.80;99.90
44047;DHT22;29713;-33.888;151.150;2023-02-23T12:03:43;20.90;99.90
44047;DHT22;29713;-33.888;151.150;2023-02-23T12:06:38;20.90;99.90
44047;DHT22;29713;-33.888;151.150;2023-02-23T12:11:38;20.90;99.90
44047;DHT22;29713;-33.888;151.150;2023-02-23T12:17:46;20.90;99.90
44047;DHT22;29713;-33.888;151.150;2023-02-23T12:20:23;20.90;99.90
44047;DHT22;29713;-33.888;151.150;2023-02-23T12:22:54;20.90;99.90
44047;DHT22;29713;-33.888;151.150;2023-02-23T12:25:36;20.80;99.90
44047;DHT22;29713;-33.888;151.150;2023-02-23T12:30:57;20.80;99.90
44047;DHT22;29713;-33.888;151.150;2023-02-23T12:34:00;20.70;99.90
44047;DHT22;29713;-33.888;151.150;2023-02-23T12:39:11;20.70;99.90
44047;DHT22;29713;-33.888;151.150;2023-02-23T12:44:54;20.70;99.90
44047;DHT22;29713;-33.888;151.150;2023-02-23T13:06:37;20.60;99.90
44047;DHT22;29713;-33.888;151.150;2023-02-23T13:09:32;20.50;99.90
44047;DHT22;29713;-33.888;151.150;2023-02-23T13:15:22;20.60;99.90
44047;DHT22;29713;-33.888;151.150;2023-02-23T13:18:08;20.50;99.90
44047;DHT22;29713;-33.888;151.150;2023-02-23T13:20:59;20.50;99.90
44047;DHT22;29713;-33.888;151.150;2023-02-23T13:29:12;20.50;99.90
44047;DHT22;29713;-33.888;151.150;2023-02-23T13:31:44;20.50;99.90
44047;DHT22;29713;-33.888;151.150;2023-02-23T13:34:18;20.50;99.90
44047;DHT22;29713;-33.888;151.150;2023-02-23T13:36:48;20.50;99.90
44047;DHT22;29713;-33.888;151.150;2023-02-23T13:39:32;20.50;99.90
44047;DHT22;29713;-33.888;151.150;2023-02-23T13:53:01;20.50;99.90
44047;DHT22;29713;-33.888;151.150;2023-02-23T13:55:42;20.50;99.90
44047;DHT22;29713;-33.888;151.150;2023-02-23T13:58:27;20.50;99.90
44047;DHT22;29713;-33.888;151.150;2023-02-23T14:01:09;20.50;99.90
44047;DHT22;29713;-33.888;151.150;2023-02-23T14:03:44;20.50;99.90
44047;DHT22;29713;-33.888;151.150;2023-02-23T14:06:15;20.50;99.90
44047;DHT22;29713;-33.888;151.150;2023-02-23T14:08:49;20.50;99.90
44047;DHT22;29713;-33.888;151.150;2023-02-23T14:11:41;20.40;99.90
44047;DHT22;29713;-33.888;151.150;2023-02-23T14:14:53;20.40;99.90
44047;DHT22;29713;-33.888;151.150;2023-02-23T14:28:36;20.10;99.90
44047;DHT22;29713;-33.888;151.150;2023-02-23T14:46:33;19.60;99.90
44047;DHT22;29713;-33.888;151.150;2023-02-23T14:49:07;19.50;99.90
44047;DHT22;29713;-33.888;151.150;2023-02-23T14:51:45;19.40;99.90
44047;DHT22;29713;-33.888;151.150;2023-02-23T14:54:32;19.40;99.90
44047;DHT22;29713;-33.888;151.150;2023-02-23T14:57:03;19.30;99.90
44047;DHT22;29713;-33.888;151.150;2023-02-23T14:59:41;19.30;99.90
44047;DHT22;29713;-33.888;151.150;2023-02-23T15:02:18;19.30;99.90
44047;DHT22;29713;-33.888;151.150;2023-02-23T15:04:45;19.20;99.90
44047;DHT22;29713;-33.888;151.150;2023-02-23T15:09:55;19.20;99.90
44047;DHT22;29713;-33.888;151.150;2023-02-23T15:12:36;19.20;99.90
44047;DHT22;29713;-33.888;151.150;2023-02-23T15:15:06;19.20;99.90
44047;DHT22;29713;-33.888;151.150;2023-02-23T15:17:43;19.10;99.90
44047;DHT22;29713;-33.888;151.150;2023-02-23T15:20:18;19.10;99.90
44047;DHT22;29713;-33.888;151.150;2023-02-23T15:22:54;19.10;99.90
44047;DHT22;29713;-33.888;151.150;2023-02-23T15:25:40;19.00;99.90
44047;DHT22;29713;-33.888;151.150;2023-02-23T15:28:38;19.00;99.90
44047;DHT22;29713;-33.888;151.150;2023-02-23T15:31:09;18.90;99.90
44047;DHT22;29713;-33.888;151.150;2023-02-23T15:33:39;18.90;99.90
44047;DHT22;29713;-33.888;151.150;2023-02-23T15:36:31;18.90;99.90
44047;DHT22;29713;-33.888;151.150;2023-02-23T15:39:05;18.90;99.90
44047;DHT22;29713;-33.888;151.150;2023-02-23T15:41:36;18.80;99.90
44047;DHT22;29713;-33.888;151.150;2023-02-23T15:44:25;18.80;99.90
44047;DHT22;29713;-33.888;151.150;2023-02-23T15:46:59;18.80;99.90
44047;DHT22;29713;-33.888;151.150;2023-02-23T15:49:38;18.70;99.90
44047;DHT22;29713;-33.888;151.150;2023-02-23T15:52:15;18.70;99.90
44047;DHT22;29713;-33.888;151.150;2023-02-23T15:54:56;18.80;99.90
44047;DHT22;29713;-33.888;151.150;2023-02-23T15:57:50;18.80;99.90
44047;DHT22;29713;-33.888;151.150;2023-02-23T16:00:24;18.70;99.90
44047;DHT22;29713;-33.888;151.150;2023-02-23T16:02:59;18.70;99.90
44047;DHT22;29713;-33.888;151.150;2023-02-23T16:05:30;18.70;99.90
44047;DHT22;29713;-33.888;151.150;2023-02-23T16:08:06;18.70;99.90
44047;DHT22;29713;-33.888;151.150;2023-02-23T16:10:44;18.60;99.90
44047;DHT22;29713;-33.888;151.150;2023-02-23T16:13:19;18.60;99.90
44047;DHT22;29713;-33.888;151.150;2023-02-23T16:15:48;18.60;99.90
44047;DHT22;29713;-33.888;151.150;2023-02-23T16:18:31;18.60;99.90
44047;DHT22;29713;-33.888;151.150;2023-02-23T16:21:00;18.60;99.90
44047;DHT22;29713;-33.888;151.150;2023-02-23T16:23:35;18.60;99.90
44047;DHT22;29713;-33.888;151.150;2023-02-23T16:26:15;18.60;99.90
44047;DHT22;29713;-33.888;151.150;2023-02-23T16:28:44;18.60;99.90
44047;DHT22;29713;-33.888;151.150;2023-02-23T16:31:18;18.60;99.90
44047;DHT22;29713;-33.888;151.150;2023-02-23T16:33:53;18.60;99.90
44047;DHT22;29713;-33.888;151.150;2023-02-23T16:36:34;18.60;99.90
44047;DHT22;29713;-33.888;151.150;2023-02-23T16:39:10;18.60;99.90
44047;DHT22;29713;-33.888;151.150;2023-02-23T16:41:37;18.50;99.90
44047;DHT22;29713;-33.888;151.150;2023-02-23T16:44:06;18.50;99.90
44047;DHT22;29713;-33.888;151.150;2023-02-23T16:49:29;18.40;99.90
44047;DHT22;29713;-33.888;151.150;2023-02-23T16:51:58;18.40;99.90
44047;DHT22;29713;-33.888;151.150;2023-02-23T16:54:26;18.30;99.90
44047;DHT22;29713;-33.888;151.150;2023-02-23T16:56:54;18.30;99.90
44047;DHT22;29713;-33.888;151.150;2023-02-23T16:59:23;18.30;99.90
44047;DHT22;29713;-33.888;151.150;2023-02-23T17:01:50;18.30;99.90
44047;DHT22;29713;-33.888;151.150;2023-02-23T17:04:19;18.30;99.90
44047;DHT22;29713;-33.888;151.150;2023-02-23T17:06:46;18.20;99.90
44047;DHT22;29713;-33.888;151.150;2023-02-23T17:09:23;18.20;99.90
44047;DHT22;29713;-33.888;151.150;2023-02-23T17:11:50;18.20;99.90
44047;DHT22;29713;-33.888;151.150;2023-02-23T17:14:25;18.20;99.90
44047;DHT22;29713;-33.888;151.150;2023-02-23T17:16:58;18.20;99.90
44047;DHT22;29713;-33.888;151.150;2023-02-23T17:19:29;18.20;99.90
44047;DHT22;29713;-33.888;151.150;2023-02-23T17:21:56;18.10;99.90
44047;DHT22;29713;-33.888;151.150;2023-02-23T17:24:23;18.10;99.90
44047;DHT22;29713;-33.888;151.150;2023-02-23T17:26:54;18.00;99.90
44047;DHT22;29713;-33.888;151.150;2023-02-23T17:29:22;18.00;99.90
44047;DHT22;29713;-33.888;151.150;2023-02-23T17:31:50;18.00;99.90
44047;DHT22;29713;-33.888;151.150;2023-02-23T17:34:17;18.00;99.90
44047;DHT22;29713;-33.888;151.150;2023-02-23T17:36:45;18.10;99.90
44047;DHT22;29713;-33.888;151.150;2023-02-23T17:39:12;18.00;99.90
44047;DHT22;29713;-33.888;151.150;2023-02-23T17:41:42;18.10;99.90
44047;DHT22;29713;-33.888;151.150;2023-02-23T17:44:09;18.00;99.90
44047;DHT22;29713;-33.888;151.150;2023-02-23T17:46:37;18.00;99.90
44047;DHT22;29713;-33.888;151.150;2023-02-23T17:49:04;18.00;99.90
44047;DHT22;29713;-33.888;151.150;2023-02-23T17:51:31;18.00;99.90